sensor_id;sensor_type;location;lat;lon;timestamp;P1;durP1;ratioP1;P2;durP2;ratioP2
5646;SDS011;2845;48.626;9.362;2023-10-19T00:00:20;11.50;;;6.03;;
5646;SDS011;2845;48.626;9.362;2023-10-19T00:02:54;11.27;;;5.43;;
5646;SDS011;2845;48.626;9.362;2023-10-19T00:05:29;10.98;;;6.15;;
5646;SDS011;2845;48.626;9.362;2023-10-19T00:08:05;10.55;;;5.50;;
5646;SDS011;2845;48.626;9.362;2023-10-19T00:10:48;11.70;;;5.70;;
5646;SDS011;2845;48.626;9.362;2023-10-19T00:13:33;11.82;;;5.95;;
5646;SDS011;2845;48.626;9.362;2023-10-19T00:16:08;10.60;;;5.95;;
5646;SDS011;2845;48.626;9.362;2023-10-19T00:18:49;10.90;;;5.35;;
5646;SDS011;2845;48.626;9.362;2023-10-19T00:21:26;10.38;;;5.65;;
5646;SDS011;2845;48.626;9.362;2023-10-19T00:24:00;11.52;;;6.38;;
5646;SDS011;2845;48.626;9.362;2023-10-19T00:26:37;10.68;;;6.07;;
5646;SDS011;2845;48.626;9.362;2023-10-19T00:29:12;12.45;;;6.28;;
5646;SDS011;2845;48.626;9.362;2023-10-19T00:32:02;11.63;;;6.63;;
5646;SDS011;2845;48.626;9.362;2023-10-19T00:34:38;10.98;;;5.38;;
5646;SDS011;2845;48.626;9.362;2023-10-19T00:37:14;11.48;;;5.80;;
5646;SDS011;2845;48.626;9.362;2023-10-19T00:39:53;11.77;;;5.95;;
5646;SDS011;2845;48.626;9.362;2023-10-19T00:42:29;8.52;;;5.28;;
5646;SDS011;2845;48.626;9.362;2023-10-19T00:45:04;9.85;;;5.53;;
5646;SDS011;2845;48.626;9.362;2023-10-19T00:47:45;10.13;;;5.90;;
5646;SDS011;2845;48.626;9.362;2023-10-19T00:50:19;9.45;;;5.57;;
5646;SDS011;2845;48.626;9.362;2023-10-19T00:53:00;10.43;;;5.72;;
5646;SDS011;2845;48.626;9.362;2023-10-19T00:58:14;9.98;;;5.20;;
5646;SDS011;2845;48.626;9.362;2023-10-19T01:00:50;8.70;;;5.03;;
5646;SDS011;2845;48.626;9.362;2023-10-19T01:03:27;10.93;;;5.65;;
5646;SDS011;2845;48.626;9.362;2023-10-19T01:06:05;10.55;;;5.68;;
5646;SDS011;2845;48.626;9.362;2023-10-19T01:08:43;8.80;;;4.85;;
5646;SDS011;2845;48.626;9.362;2023-10-19T01:11:17;11.75;;;5.60;;
5646;SDS011;2845;48.626;9.362;2023-10-19T01:13:54;10.80;;;5.65;;
5646;SDS011;2845;48.626;9.362;2023-10-19T01:16:28;8.18;;;5.18;;
5646;SDS011;2845;48.626;9.362;2023-10-19T01:19:04;9.98;;;5.35;;
5646;SDS011;2845;48.626;9.362;2023-10-19T01:21:39;9.13;;;5.63;;
5646;SDS011;2845;48.626;9.362;2023-10-19T01:24:19;11.40;;;5.85;;
5646;SDS011;2845;48.626;9.362;2023-10-19T01:27:04;8.60;;;4.88;;
5646;SDS011;2845;48.626;9.362;2023-10-19T01:29:41;11.55;;;6.03;;
5646;SDS011;2845;48.626;9.362;2023-10-19T01:32:15;11.48;;;5.97;;
5646;SDS011;2845;48.626;9.362;2023-10-19T01:34:50;10.48;;;5.60;;
5646;SDS011;2845;48.626;9.362;2023-10-19T01:37:24;10.20;;;5.43;;
5646;SDS011;2845;48.626;9.362;2023-10-19T01:39:58;10.18;;;6.00;;
5646;SDS011;2845;48.626;9.362;2023-10-19T01:42:33;12.98;;;6.55;;
5646;SDS011;2845;48.626;9.362;2023-10-19T01:45:07;12.15;;;6.82;;
5646;SDS011;2845;48.626;9.362;2023-10-19T01:47:43;10.30;;;6.03;;
5646;SDS011;2845;48.626;9.362;2023-10-19T01:50:17;10.45;;;5.60;;
5646;SDS011;2845;48.626;9.362;2023-10-19T01:55:28;11.45;;;6.00;;
5646;SDS011;2845;48.626;9.362;2023-10-19T01:58:06;8.90;;;4.78;;
5646;SDS011;2845;48.626;9.362;2023-10-19T02:00:40;10.48;;;5.63;;
5646;SDS011;2845;48.626;9.362;2023-10-19T02:03:16;9.85;;;5.47;;
5646;SDS011;2845;48.626;9.362;2023-10-19T02:05:56;10.45;;;5.22;;
5646;SDS011;2845;48.626;9.362;2023-10-19T02:08:32;8.13;;;5.05;;
5646;SDS011;2845;48.626;9.362;2023-10-19T02:11:12;10.80;;;5.65;;
5646;SDS011;2845;48.626;9.362;2023-10-19T02:13:49;10.15;;;5.20;;
5646;SDS011;2845;48.626;9.362;2023-10-19T02:16:26;9.75;;;5.25;;
5646;SDS011;2845;48.626;9.362;2023-10-19T02:19:02;9.82;;;5.63;;
5646;SDS011;2845;48.626;9.362;2023-10-19T02:21:35;10.18;;;5.75;;
5646;SDS011;2845;48.626;9.362;2023-10-19T02:24:12;10.60;;;6.10;;
5646;SDS011;2845;48.626;9.362;2023-10-19T02:26:48;10.10;;;5.20;;
5646;SDS011;2845;48.626;9.362;2023-10-19T02:29:24;11.05;;;5.75;;
5646;SDS011;2845;48.626;9.362;2023-10-19T02:31:58;12.50;;;5.38;;
5646;SDS011;2845;48.626;9.362;2023-10-19T02:34:36;11.27;;;5.38;;
5646;SDS011;2845;48.626;9.362;2023-10-19T02:37:09;12.02;;;5.60;;
5646;SDS011;2845;48.626;9.362;2023-10-19T02:39:43;9.27;;;5.43;;
5646;SDS011;2845;48.626;9.362;2023-10-19T02:42:19;9.48;;;4.80;;
5646;SDS011;2845;48.626;9.362;2023-10-19T02:44:54;10.60;;;5.93;;
5646;SDS011;2845;48.626;9.362;2023-10-19T02:47:28;8.18;;;5.05;;
5646;SDS011;2845;48.626;9.362;2023-10-19T02:50:02;9.27;;;5.43;;
5646;SDS011;2845;48.626;9.362;2023-10-19T02:52:43;8.32;;;5.22;;
5646;SDS011;2845;48.626;9.362;2023-10-19T02:55:16;11.27;;;5.55;;
5646;SDS011;2845;48.626;9.362;2023-10-19T02:57:52;9.75;;;6.00;;
5646;SDS011;2845;48.626;9.362;2023-10-19T03:00:26;11.25;;;5.85;;
5646;SDS011;2845;48.626;9.362;2023-10-19T03:03:06;12.15;;;6.75;;
5646;SDS011;2845;48.626;9.362;2023-10-19T03:05:42;10.18;;;5.50;;
5646;SDS011;2845;48.626;9.362;2023-10-19T03:08:18;11.57;;;5.93;;
5646;SDS011;2845;48.626;9.362;2023-10-19T03:10:52;9.57;;;5.60;;
5646;SDS011;2845;48.626;9.362;2023-10-19T03:13:37;9.63;;;5.60;;
5646;SDS011;2845;48.626;9.362;2023-10-19T03:16:13;10.80;;;6.35;;
5646;SDS011;2845;48.626;9.362;2023-10-19T03:18:47;12.40;;;6.35;;
5646;SDS011;2845;48.626;9.362;2023-10-19T03:21:22;10.48;;;6.35;;
5646;SDS011;2845;48.626;9.362;2023-10-19T03:23:59;10.48;;;6.32;;
5646;SDS011;2845;48.626;9.362;2023-10-19T03:26:37;11.75;;;6.22;;
5646;SDS011;2845;48.626;9.362;2023-10-19T03:29:17;11.60;;;6.13;;
5646;SDS011;2845;48.626;9.362;2023-10-19T03:31:58;12.50;;;6.07;;
5646;SDS011;2845;48.626;9.362;2023-10-19T03:34:33;12.05;;;5.78;;
5646;SDS011;2845;48.626;9.362;2023-10-19T03:37:11;10.57;;;5.97;;
5646;SDS011;2845;48.626;9.362;2023-10-19T03:39:46;11.55;;;6.40;;
5646;SDS011;2845;48.626;9.362;2023-10-19T03:42:23;9.02;;;5.60;;
5646;SDS011;2845;48.626;9.362;2023-10-19T03:45:01;9.32;;;5.75;;
5646;SDS011;2845;48.626;9.362;2023-10-19T03:47:40;10.25;;;5.82;;
5646;SDS011;2845;48.626;9.362;2023-10-19T03:50:17;11.13;;;5.97;;
5646;SDS011;2845;48.626;9.362;2023-10-19T03:52:53;9.82;;;5.78;;
5646;SDS011;2845;48.626;9.362;2023-10-19T03:55:27;12.50;;;5.40;;
5646;SDS011;2845;48.626;9.362;2023-10-19T03:58:02;9.73;;;5.30;;
5646;SDS011;2845;48.626;9.362;2023-10-19T04:00:38;9.20;;;5.65;;
5646;SDS011;2845;48.626;9.362;2023-10-19T04:03:12;10.02;;;5.95;;
5646;SDS011;2845;48.626;9.362;2023-10-19T04:05:46;8.32;;;5.45;;
5646;SDS011;2845;48.626;9.362;2023-10-19T04:08:21;10.20;;;4.90;;
5646;SDS011;2845;48.626;9.362;2023-10-19T04:10:58;10.05;;;5.07;;
5646;SDS011;2845;48.626;9.362;2023-10-19T04:13:43;10.30;;;5.80;;
5646;SDS011;2845;48.626;9.362;2023-10-19T04:16:20;10.00;;;5.72;;
5646;SDS011;2845;48.626;9.362;2023-10-19T04:18:54;9.43;;;5.13;;
5646;SDS011;2845;48.626;9.362;2023-10-19T04:21:30;8.57;;;5.43;;
5646;SDS011;2845;48.626;9.362;2023-10-19T04:24:06;10.10;;;5.68;;
5646;SDS011;2845;48.626;9.362;2023-10-19T04:26:41;9.23;;;5.07;;
5646;SDS011;2845;48.626;9.362;2023-10-19T04:29:16;12.23;;;6.28;;
5646;SDS011;2845;48.626;9.362;2023-10-19T04:31:53;8.52;;;5.03;;
5646;SDS011;2845;48.626;9.362;2023-10-19T04:34:30;10.30;;;5.18;;
5646;SDS011;2845;48.626;9.362;2023-10-19T04:37:04;9.07;;;5.22;;
5646;SDS011;2845;48.626;9.362;2023-10-19T04:39:39;8.68;;;5.13;;
5646;SDS011;2845;48.626;9.362;2023-10-19T04:42:13;9.32;;;5.32;;
5646;SDS011;2845;48.626;9.362;2023-10-19T04:44:48;8.55;;;5.10;;
5646;SDS011;2845;48.626;9.362;2023-10-19T04:47:24;8.70;;;5.30;;
5646;SDS011;2845;48.626;9.362;2023-10-19T04:49:58;11.15;;;5.68;;
5646;SDS011;2845;48.626;9.362;2023-10-19T04:52:33;10.13;;;5.60;;
5646;SDS011;2845;48.626;9.362;2023-10-19T04:55:08;10.60;;;5.40;;
5646;SDS011;2845;48.626;9.362;2023-10-19T04:57:43;10.95;;;5.38;;
5646;SDS011;2845;48.626;9.362;2023-10-19T05:00:17;10.20;;;5.35;;
5646;SDS011;2845;48.626;9.362;2023-10-19T05:02:54;9.50;;;4.88;;
5646;SDS011;2845;48.626;9.362;2023-10-19T05:05:30;12.50;;;5.95;;
5646;SDS011;2845;48.626;9.362;2023-10-19T05:08:04;11.27;;;5.80;;
5646;SDS011;2845;48.626;9.362;2023-10-19T05:10:39;10.00;;;5.80;;
5646;SDS011;2845;48.626;9.362;2023-10-19T05:13:14;9.13;;;6.35;;
5646;SDS011;2845;48.626;9.362;2023-10-19T05:15:48;9.27;;;5.70;;
5646;SDS011;2845;48.626;9.362;2023-10-19T05:18:24;10.00;;;5.45;;
5646;SDS011;2845;48.626;9.362;2023-10-19T05:20:59;11.18;;;5.68;;
5646;SDS011;2845;48.626;9.362;2023-10-19T05:23:33;9.13;;;5.75;;
5646;SDS011;2845;48.626;9.362;2023-10-19T05:26:08;9.98;;;6.28;;
5646;SDS011;2845;48.626;9.362;2023-10-19T05:28:42;10.57;;;6.57;;
5646;SDS011;2845;48.626;9.362;2023-10-19T05:31:16;9.10;;;6.20;;
5646;SDS011;2845;48.626;9.362;2023-10-19T05:33:52;10.43;;;6.18;;
5646;SDS011;2845;48.626;9.362;2023-10-19T05:36:27;9.90;;;6.18;;
5646;SDS011;2845;48.626;9.362;2023-10-19T05:39:01;7.78;;;5.57;;
5646;SDS011;2845;48.626;9.362;2023-10-19T05:50:07;8.13;;;5.15;;
5646;SDS011;2845;48.626;9.362;2023-10-19T05:52:41;9.32;;;5.32;;
5646;SDS011;2845;48.626;9.362;2023-10-19T05:55:17;8.50;;;4.93;;
5646;SDS011;2845;48.626;9.362;2023-10-19T05:57:53;7.95;;;4.93;;
5646;SDS011;2845;48.626;9.362;2023-10-19T06:00:28;9.15;;;5.53;;
5646;SDS011;2845;48.626;9.362;2023-10-19T06:03:02;9.70;;;5.20;;
5646;SDS011;2845;48.626;9.362;2023-10-19T06:05:39;7.20;;;4.20;;
5646;SDS011;2845;48.626;9.362;2023-10-19T06:08:13;8.50;;;3.95;;
5646;SDS011;2845;48.626;9.362;2023-10-19T06:10:50;8.02;;;4.25;;
5646;SDS011;2845;48.626;9.362;2023-10-19T06:13:25;6.32;;;3.50;;
5646;SDS011;2845;48.626;9.362;2023-10-19T06:15:59;6.65;;;3.90;;
5646;SDS011;2845;48.626;9.362;2023-10-19T06:18:33;7.75;;;3.33;;
5646;SDS011;2845;48.626;9.362;2023-10-19T06:21:09;7.07;;;3.40;;
5646;SDS011;2845;48.626;9.362;2023-10-19T06:23:44;5.80;;;3.53;;
5646;SDS011;2845;48.626;9.362;2023-10-19T06:26:18;9.05;;;4.68;;
5646;SDS011;2845;48.626;9.362;2023-10-19T06:28:53;7.72;;;4.75;;
5646;SDS011;2845;48.626;9.362;2023-10-19T06:31:31;9.52;;;5.90;;
5646;SDS011;2845;48.626;9.362;2023-10-19T06:34:05;6.97;;;4.45;;
5646;SDS011;2845;48.626;9.362;2023-10-19T06:36:40;8.73;;;4.40;;
5646;SDS011;2845;48.626;9.362;2023-10-19T06:39:15;7.55;;;3.92;;
5646;SDS011;2845;48.626;9.362;2023-10-19T06:41:50;8.02;;;3.92;;
5646;SDS011;2845;48.626;9.362;2023-10-19T06:44:24;7.10;;;3.95;;
5646;SDS011;2845;48.626;9.362;2023-10-19T06:46:58;6.85;;;3.92;;
5646;SDS011;2845;48.626;9.362;2023-10-19T06:49:33;8.38;;;3.58;;
5646;SDS011;2845;48.626;9.362;2023-10-19T06:52:08;6.88;;;3.38;;
5646;SDS011;2845;48.626;9.362;2023-10-19T06:54:44;5.75;;;3.47;;
5646;SDS011;2845;48.626;9.362;2023-10-19T06:57:18;6.78;;;3.30;;
5646;SDS011;2845;48.626;9.362;2023-10-19T06:59:53;5.18;;;2.97;;
5646;SDS011;2845;48.626;9.362;2023-10-19T07:02:27;6.07;;;3.55;;
5646;SDS011;2845;48.626;9.362;2023-10-19T07:05:02;7.32;;;3.28;;
5646;SDS011;2845;48.626;9.362;2023-10-19T07:07:39;6.63;;;3.65;;
5646;SDS011;2845;48.626;9.362;2023-10-19T07:10:14;5.28;;;3.05;;
5646;SDS011;2845;48.626;9.362;2023-10-19T07:12:51;5.65;;;2.85;;
5646;SDS011;2845;48.626;9.362;2023-10-19T07:15:27;5.13;;;2.92;;
5646;SDS011;2845;48.626;9.362;2023-10-19T07:18:02;7.38;;;3.08;;
5646;SDS011;2845;48.626;9.362;2023-10-19T07:20:38;5.60;;;3.15;;
5646;SDS011;2845;48.626;9.362;2023-10-19T07:23:16;6.13;;;3.63;;
5646;SDS011;2845;48.626;9.362;2023-10-19T07:25:53;6.97;;;3.50;;
5646;SDS011;2845;48.626;9.362;2023-10-19T07:28:28;4.78;;;2.90;;
5646;SDS011;2845;48.626;9.362;2023-10-19T07:31:03;7.00;;;3.38;;
5646;SDS011;2845;48.626;9.362;2023-10-19T07:33:43;5.57;;;3.05;;
5646;SDS011;2845;48.626;9.362;2023-10-19T07:36:19;6.28;;;3.20;;
5646;SDS011;2845;48.626;9.362;2023-10-19T07:38:55;5.63;;;2.97;;
5646;SDS011;2845;48.626;9.362;2023-10-19T07:41:29;5.28;;;2.88;;
5646;SDS011;2845;48.626;9.362;2023-10-19T07:44:08;5.70;;;2.90;;
5646;SDS011;2845;48.626;9.362;2023-10-19T07:46:42;7.18;;;4.03;;
5646;SDS011;2845;48.626;9.362;2023-10-19T07:49:16;7.28;;;3.83;;
5646;SDS011;2845;48.626;9.362;2023-10-19T07:51:51;8.52;;;4.30;;
5646;SDS011;2845;48.626;9.362;2023-10-19T07:54:30;7.32;;;4.03;;
5646;SDS011;2845;48.626;9.362;2023-10-19T07:57:04;6.85;;;3.72;;
5646;SDS011;2845;48.626;9.362;2023-10-19T07:59:38;7.30;;;3.83;;
5646;SDS011;2845;48.626;9.362;2023-10-19T08:02:13;6.05;;;3.20;;
5646;SDS011;2845;48.626;9.362;2023-10-19T08:04:47;5.10;;;3.22;;
5646;SDS011;2845;48.626;9.362;2023-10-19T08:07:21;6.60;;;3.40;;
5646;SDS011;2845;48.626;9.362;2023-10-19T08:10:00;5.90;;;2.83;;
5646;SDS011;2845;48.626;9.362;2023-10-19T08:12:34;5.50;;;2.80;;
5646;SDS011;2845;48.626;9.362;2023-10-19T08:15:09;4.82;;;3.03;;
5646;SDS011;2845;48.626;9.362;2023-10-19T08:17:45;6.63;;;3.47;;
5646;SDS011;2845;48.626;9.362;2023-10-19T08:20:22;8.20;;;4.57;;
5646;SDS011;2845;48.626;9.362;2023-10-19T08:22:58;7.53;;;4.38;;
5646;SDS011;2845;48.626;9.362;2023-10-19T08:25:36;8.68;;;4.43;;
5646;SDS011;2845;48.626;9.362;2023-10-19T08:28:27;6.57;;;3.72;;
5646;SDS011;2845;48.626;9.362;2023-10-19T08:31:02;6.82;;;3.40;;
5646;SDS011;2845;48.626;9.362;2023-10-19T08:33:37;6.72;;;3.65;;
5646;SDS011;2845;48.626;9.362;2023-10-19T08:36:17;6.97;;;3.90;;
5646;SDS011;2845;48.626;9.362;2023-10-19T08:38:52;6.78;;;4.15;;
5646;SDS011;2845;48.626;9.362;2023-10-19T08:41:28;6.85;;;3.83;;
5646;SDS011;2845;48.626;9.362;2023-10-19T08:44:02;6.70;;;3.70;;
5646;SDS011;2845;48.626;9.362;2023-10-19T08:46:43;10.23;;;4.85;;
5646;SDS011;2845;48.626;9.362;2023-10-19T08:49:19;7.18;;;4.03;;
5646;SDS011;2845;48.626;9.362;2023-10-19T08:51:54;7.72;;;4.18;;
5646;SDS011;2845;48.626;9.362;2023-10-19T08:54:30;8.75;;;5.18;;
5646;SDS011;2845;48.626;9.362;2023-10-19T08:57:07;9.00;;;4.20;;
5646;SDS011;2845;48.626;9.362;2023-10-19T08:59:43;7.15;;;4.13;;
5646;SDS011;2845;48.626;9.362;2023-10-19T09:02:19;6.38;;;3.72;;
5646;SDS011;2845;48.626;9.362;2023-10-19T09:04:53;7.25;;;3.95;;
5646;SDS011;2845;48.626;9.362;2023-10-19T09:07:31;6.43;;;3.78;;
5646;SDS011;2845;48.626;9.362;2023-10-19T09:10:07;6.93;;;4.00;;
5646;SDS011;2845;48.626;9.362;2023-10-19T09:12:54;9.48;;;3.83;;
5646;SDS011;2845;48.626;9.362;2023-10-19T09:15:34;7.80;;;4.25;;
5646;SDS011;2845;48.626;9.362;2023-10-19T09:18:13;7.63;;;4.22;;
5646;SDS011;2845;48.626;9.362;2023-10-19T09:20:48;8.05;;;4.22;;
5646;SDS011;2845;48.626;9.362;2023-10-19T09:23:28;6.85;;;4.03;;
5646;SDS011;2845;48.626;9.362;2023-10-19T09:26:03;5.95;;;3.47;;
5646;SDS011;2845;48.626;9.362;2023-10-19T09:28:41;6.72;;;4.18;;
5646;SDS011;2845;48.626;9.362;2023-10-19T09:31:16;6.45;;;4.00;;
5646;SDS011;2845;48.626;9.362;2023-10-19T09:33:51;6.88;;;4.15;;
5646;SDS011;2845;48.626;9.362;2023-10-19T09:36:25;7.60;;;4.93;;
5646;SDS011;2845;48.626;9.362;2023-10-19T09:39:02;6.82;;;4.10;;
5646;SDS011;2845;48.626;9.362;2023-10-19T09:41:38;7.30;;;4.25;;
5646;SDS011;2845;48.626;9.362;2023-10-19T09:44:15;8.95;;;4.10;;
5646;SDS011;2845;48.626;9.362;2023-10-19T09:46:56;6.03;;;3.67;;
5646;SDS011;2845;48.626;9.362;2023-10-19T09:49:32;7.75;;;4.10;;
5646;SDS011;2845;48.626;9.362;2023-10-19T09:52:06;8.73;;;4.32;;
5646;SDS011;2845;48.626;9.362;2023-10-19T09:54:45;8.18;;;4.40;;
5646;SDS011;2845;48.626;9.362;2023-10-19T09:57:30;7.30;;;4.10;;
5646;SDS011;2845;48.626;9.362;2023-10-19T10:00:11;6.32;;;4.28;;
5646;SDS011;2845;48.626;9.362;2023-10-19T10:02:46;6.75;;;4.10;;
5646;SDS011;2845;48.626;9.362;2023-10-19T10:08:30;7.35;;;4.30;;
5646;SDS011;2845;48.626;9.362;2023-10-19T10:13:59;7.95;;;4.32;;
5646;SDS011;2845;48.626;9.362;2023-10-19T10:16:35;7.00;;;4.30;;
5646;SDS011;2845;48.626;9.362;2023-10-19T10:19:11;6.82;;;4.40;;
5646;SDS011;2845;48.626;9.362;2023-10-19T10:27:29;7.43;;;4.30;;
5646;SDS011;2845;48.626;9.362;2023-10-19T10:30:04;6.05;;;4.28;;
5646;SDS011;2845;48.626;9.362;2023-10-19T10:32:45;7.95;;;4.15;;
5646;SDS011;2845;48.626;9.362;2023-10-19T10:38:27;6.63;;;3.97;;
5646;SDS011;2845;48.626;9.362;2023-10-19T10:41:08;7.57;;;4.25;;
5646;SDS011;2845;48.626;9.362;2023-10-19T10:43:50;8.20;;;4.45;;
5646;SDS011;2845;48.626;9.362;2023-10-19T10:46:29;7.57;;;4.43;;
5646;SDS011;2845;48.626;9.362;2023-10-19T10:49:09;8.60;;;4.13;;
5646;SDS011;2845;48.626;9.362;2023-10-19T10:51:44;9.57;;;4.70;;
5646;SDS011;2845;48.626;9.362;2023-10-19T10:54:20;8.65;;;4.25;;
5646;SDS011;2845;48.626;9.362;2023-10-19T10:56:55;10.07;;;4.47;;
5646;SDS011;2845;48.626;9.362;2023-10-19T10:59:29;7.53;;;3.85;;
5646;SDS011;2845;48.626;9.362;2023-10-19T11:02:15;6.70;;;3.75;;
5646;SDS011;2845;48.626;9.362;2023-10-19T11:04:52;8.23;;;4.70;;
5646;SDS011;2845;48.626;9.362;2023-10-19T11:07:30;8.50;;;4.35;;
5646;SDS011;2845;48.626;9.362;2023-10-19T11:10:04;8.73;;;4.35;;
5646;SDS011;2845;48.626;9.362;2023-10-19T11:12:42;8.27;;;4.30;;
5646;SDS011;2845;48.626;9.362;2023-10-19T11:15:20;5.63;;;3.63;;
5646;SDS011;2845;48.626;9.362;2023-10-19T11:17:55;6.25;;;3.75;;
5646;SDS011;2845;48.626;9.362;2023-10-19T11:20:31;5.70;;;3.33;;
5646;SDS011;2845;48.626;9.362;2023-10-19T11:23:05;5.25;;;3.38;;
5646;SDS011;2845;48.626;9.362;2023-10-19T11:25:39;5.55;;;3.08;;
5646;SDS011;2845;48.626;9.362;2023-10-19T11:28:16;7.65;;;3.95;;
5646;SDS011;2845;48.626;9.362;2023-10-19T11:30:51;6.53;;;4.00;;
5646;SDS011;2845;48.626;9.362;2023-10-19T11:33:26;7.85;;;4.57;;
5646;SDS011;2845;48.626;9.362;2023-10-19T11:36:02;10.15;;;6.05;;
5646;SDS011;2845;48.626;9.362;2023-10-19T11:38:39;8.82;;;4.88;;
5646;SDS011;2845;48.626;9.362;2023-10-19T11:41:15;6.75;;;4.30;;
5646;SDS011;2845;48.626;9.362;2023-10-19T11:43:50;7.57;;;4.57;;
5646;SDS011;2845;48.626;9.362;2023-10-19T11:46:29;6.55;;;4.35;;
5646;SDS011;2845;48.626;9.362;2023-10-19T11:49:03;7.20;;;4.22;;
5646;SDS011;2845;48.626;9.362;2023-10-19T11:51:40;6.88;;;4.00;;
5646;SDS011;2845;48.626;9.362;2023-10-19T11:54:16;7.68;;;4.00;;
5646;SDS011;2845;48.626;9.362;2023-10-19T11:56:51;8.55;;;4.55;;
5646;SDS011;2845;48.626;9.362;2023-10-19T11:59:26;8.75;;;4.43;;
5646;SDS011;2845;48.626;9.362;2023-10-19T12:02:01;8.05;;;4.38;;
5646;SDS011;2845;48.626;9.362;2023-10-19T12:04:39;7.88;;;4.47;;
5646;SDS011;2845;48.626;9.362;2023-10-19T12:07:15;6.13;;;3.90;;
5646;SDS011;2845;48.626;9.362;2023-10-19T12:09:49;6.70;;;3.83;;
5646;SDS011;2845;48.626;9.362;2023-10-19T12:12:24;8.15;;;3.65;;
5646;SDS011;2845;48.626;9.362;2023-10-19T12:15:02;6.00;;;3.08;;
5646;SDS011;2845;48.626;9.362;2023-10-19T12:17:40;6.35;;;2.83;;
5646;SDS011;2845;48.626;9.362;2023-10-19T12:20:14;6.40;;;3.40;;
5646;SDS011;2845;48.626;9.362;2023-10-19T12:22:50;6.60;;;2.95;;
5646;SDS011;2845;48.626;9.362;2023-10-19T12:25:26;5.40;;;2.63;;
5646;SDS011;2845;48.626;9.362;2023-10-19T12:28:24;4.15;;;2.40;;
5646;SDS011;2845;48.626;9.362;2023-10-19T12:31:06;4.50;;;2.00;;
5646;SDS011;2845;48.626;9.362;2023-10-19T12:33:42;4.75;;;2.20;;
5646;SDS011;2845;48.626;9.362;2023-10-19T12:36:17;3.28;;;1.63;;
5646;SDS011;2845;48.626;9.362;2023-10-19T12:39:05;3.95;;;1.70;;
5646;SDS011;2845;48.626;9.362;2023-10-19T12:42:08;2.75;;;1.55;;
5646;SDS011;2845;48.626;9.362;2023-10-19T12:44:46;5.35;;;2.30;;
5646;SDS011;2845;48.626;9.362;2023-10-19T12:47:20;3.28;;;1.95;;
5646;SDS011;2845;48.626;9.362;2023-10-19T12:49:57;4.13;;;2.45;;
5646;SDS011;2845;48.626;9.362;2023-10-19T12:52:31;3.10;;;1.67;;
5646;SDS011;2845;48.626;9.362;2023-10-19T12:55:11;3.90;;;2.08;;
5646;SDS011;2845;48.626;9.362;2023-10-19T12:57:46;2.22;;;1.40;;
5646;SDS011;2845;48.626;9.362;2023-10-19T13:00:23;4.85;;;1.77;;
5646;SDS011;2845;48.626;9.362;2023-10-19T13:02:58;4.95;;;2.10;;
5646;SDS011;2845;48.626;9.362;2023-10-19T13:05:33;5.28;;;2.17;;
5646;SDS011;2845;48.626;9.362;2023-10-19T13:08:09;4.55;;;2.03;;
5646;SDS011;2845;48.626;9.362;2023-10-19T13:10:50;2.95;;;1.67;;
5646;SDS011;2845;48.626;9.362;2023-10-19T13:13:30;3.10;;;1.80;;
5646;SDS011;2845;48.626;9.362;2023-10-19T13:16:04;3.72;;;1.88;;
5646;SDS011;2845;48.626;9.362;2023-10-19T13:18:41;4.00;;;1.75;;
5646;SDS011;2845;48.626;9.362;2023-10-19T13:21:16;2.10;;;1.40;;
5646;SDS011;2845;48.626;9.362;2023-10-19T13:23:54;2.50;;;1.50;;
5646;SDS011;2845;48.626;9.362;2023-10-19T13:26:31;3.20;;;1.73;;
5646;SDS011;2845;48.626;9.362;2023-10-19T13:29:06;3.10;;;1.55;;
5646;SDS011;2845;48.626;9.362;2023-10-19T13:31:41;4.35;;;1.58;;
5646;SDS011;2845;48.626;9.362;2023-10-19T13:34:21;2.50;;;1.30;;
5646;SDS011;2845;48.626;9.362;2023-10-19T13:36:56;2.28;;;1.50;;
5646;SDS011;2845;48.626;9.362;2023-10-19T13:39:30;3.58;;;2.03;;
5646;SDS011;2845;48.626;9.362;2023-10-19T13:42:06;4.85;;;2.40;;
5646;SDS011;2845;48.626;9.362;2023-10-19T13:44:41;5.43;;;2.25;;
5646;SDS011;2845;48.626;9.362;2023-10-19T13:47:15;4.32;;;2.50;;
5646;SDS011;2845;48.626;9.362;2023-10-19T13:49:50;4.63;;;2.30;;
5646;SDS011;2845;48.626;9.362;2023-10-19T13:52:24;4.55;;;2.28;;
5646;SDS011;2845;48.626;9.362;2023-10-19T13:54:59;4.30;;;2.17;;
5646;SDS011;2845;48.626;9.362;2023-10-19T13:57:34;3.80;;;2.28;;
5646;SDS011;2845;48.626;9.362;2023-10-19T14:00:10;6.88;;;2.15;;
5646;SDS011;2845;48.626;9.362;2023-10-19T14:02:51;3.75;;;2.10;;
5646;SDS011;2845;48.626;9.362;2023-10-19T14:05:26;4.45;;;2.08;;
5646;SDS011;2845;48.626;9.362;2023-10-19T14:08:04;5.03;;;2.78;;
5646;SDS011;2845;48.626;9.362;2023-10-19T14:10:40;3.67;;;1.98;;
5646;SDS011;2845;48.626;9.362;2023-10-19T14:13:16;5.15;;;2.42;;
5646;SDS011;2845;48.626;9.362;2023-10-19T14:15:52;4.75;;;2.78;;
5646;SDS011;2845;48.626;9.362;2023-10-19T14:18:26;3.67;;;1.92;;
5646;SDS011;2845;48.626;9.362;2023-10-19T14:21:00;4.40;;;2.22;;
5646;SDS011;2845;48.626;9.362;2023-10-19T14:23:44;4.25;;;2.35;;
5646;SDS011;2845;48.626;9.362;2023-10-19T14:26:20;3.88;;;2.13;;
5646;SDS011;2845;48.626;9.362;2023-10-19T14:28:57;6.00;;;2.35;;
5646;SDS011;2845;48.626;9.362;2023-10-19T14:31:31;2.92;;;1.75;;
5646;SDS011;2845;48.626;9.362;2023-10-19T14:34:06;4.68;;;1.92;;
5646;SDS011;2845;48.626;9.362;2023-10-19T14:36:41;5.93;;;3.10;;
5646;SDS011;2845;48.626;9.362;2023-10-19T14:39:15;6.40;;;3.15;;
5646;SDS011;2845;48.626;9.362;2023-10-19T14:41:52;5.32;;;2.67;;
5646;SDS011;2845;48.626;9.362;2023-10-19T14:44:27;4.70;;;2.58;;
5646;SDS011;2845;48.626;9.362;2023-10-19T14:47:02;3.97;;;2.10;;
5646;SDS011;2845;48.626;9.362;2023-10-19T14:49:38;3.97;;;2.47;;
5646;SDS011;2845;48.626;9.362;2023-10-19T14:52:12;7.03;;;2.92;;
5646;SDS011;2845;48.626;9.362;2023-10-19T14:54:46;4.47;;;2.80;;
5646;SDS011;2845;48.626;9.362;2023-10-19T14:57:22;4.63;;;2.33;;
5646;SDS011;2845;48.626;9.362;2023-10-19T14:59:58;2.45;;;1.63;;
5646;SDS011;2845;48.626;9.362;2023-10-19T15:02:40;3.03;;;1.23;;
5646;SDS011;2845;48.626;9.362;2023-10-19T15:05:17;3.58;;;1.95;;
5646;SDS011;2845;48.626;9.362;2023-10-19T15:07:52;5.18;;;2.15;;
5646;SDS011;2845;48.626;9.362;2023-10-19T15:10:28;5.25;;;2.15;;
5646;SDS011;2845;48.626;9.362;2023-10-19T15:13:02;3.65;;;1.63;;
5646;SDS011;2845;48.626;9.362;2023-10-19T15:15:39;3.47;;;1.52;;
5646;SDS011;2845;48.626;9.362;2023-10-19T15:18:13;4.40;;;1.40;;
5646;SDS011;2845;48.626;9.362;2023-10-19T15:20:47;2.05;;;1.13;;
5646;SDS011;2845;48.626;9.362;2023-10-19T15:23:22;2.50;;;1.23;;
5646;SDS011;2845;48.626;9.362;2023-10-19T15:25:58;1.45;;;0.75;;
5646;SDS011;2845;48.626;9.362;2023-10-19T15:28:32;1.38;;;0.52;;
5646;SDS011;2845;48.626;9.362;2023-10-19T15:31:08;2.13;;;0.65;;
5646;SDS011;2845;48.626;9.362;2023-10-19T15:33:42;1.30;;;0.60;;
5646;SDS011;2845;48.626;9.362;2023-10-19T15:36:16;1.65;;;0.40;;
5646;SDS011;2845;48.626;9.362;2023-10-19T15:38:50;0.82;;;0.40;;
5646;SDS011;2845;48.626;9.362;2023-10-19T15:41:25;2.05;;;0.57;;
5646;SDS011;2845;48.626;9.362;2023-10-19T15:43:59;1.48;;;0.30;;
5646;SDS011;2845;48.626;9.362;2023-10-19T15:46:35;0.50;;;0.20;;
5646;SDS011;2845;48.626;9.362;2023-10-19T15:49:12;0.43;;;0.25;;
5646;SDS011;2845;48.626;9.362;2023-10-19T15:51:49;0.75;;;0.25;;
5646;SDS011;2845;48.626;9.362;2023-10-19T15:54:25;0.55;;;0.25;;
5646;SDS011;2845;48.626;9.362;2023-10-19T15:56:59;0.43;;;0.20;;
5646;SDS011;2845;48.626;9.362;2023-10-19T15:59:33;0.30;;;0.20;;
5646;SDS011;2845;48.626;9.362;2023-10-19T16:02:09;0.20;;;0.10;;
5646;SDS011;2845;48.626;9.362;2023-10-19T16:04:44;0.30;;;0.13;;
5646;SDS011;2845;48.626;9.362;2023-10-19T16:07:19;0.57;;;0.30;;
5646;SDS011;2845;48.626;9.362;2023-10-19T16:09:53;0.40;;;0.22;;
5646;SDS011;2845;48.626;9.362;2023-10-19T16:12:27;0.90;;;0.30;;
5646;SDS011;2845;48.626;9.362;2023-10-19T16:15:03;0.60;;;0.30;;
5646;SDS011;2845;48.626;9.362;2023-10-19T16:17:40;1.95;;;0.30;;
5646;SDS011;2845;48.626;9.362;2023-10-19T16:20:18;2.05;;;0.60;;
5646;SDS011;2845;48.626;9.362;2023-10-19T16:22:52;2.40;;;1.50;;
5646;SDS011;2845;48.626;9.362;2023-10-19T16:25:27;2.20;;;1.10;;
5646;SDS011;2845;48.626;9.362;2023-10-19T16:28:02;1.90;;;0.70;;
5646;SDS011;2845;48.626;9.362;2023-10-19T16:30:37;1.67;;;0.73;;
5646;SDS011;2845;48.626;9.362;2023-10-19T16:33:13;1.77;;;0.90;;
5646;SDS011;2845;48.626;9.362;2023-10-19T16:35:47;1.10;;;0.50;;